createdAt,value
2019-01-23T00:00:24.663Z,16.45
2019-01-23T00:01:28.259Z,16.45
2019-01-23T00:02:31.947Z,16.44
2019-01-23T00:03:35.645Z,16.41
2019-01-23T00:04:39.233Z,16.42
2019-01-23T00:05:42.784Z,16.39
2019-01-23T00:06:46.474Z,16.39
2019-01-23T00:07:50.112Z,16.38
2019-01-23T00:08:53.641Z,16.37
2019-01-23T00:09:57.183Z,16.36
2019-01-23T00:11:00.780Z,16.32
2019-01-23T00:12:04.752Z,16.33
2019-01-23T00:13:08.490Z,16.33
2019-01-23T00:14:12.086Z,16.32
2019-01-23T00:15:15.968Z,16.31
2019-01-23T00:16:19.598Z,16.30
2019-01-23T00:17:23.177Z,16.30
2019-01-23T00:18:26.848Z,16.30
2019-01-23T00:19:30.543Z,16.27
2019-01-23T00:20:34.144Z,16.27
2019-01-23T00:21:37.720Z,16.28
2019-01-23T00:22:41.324Z,16.26
2019-01-23T00:23:45.019Z,16.25
2019-01-23T00:24:48.703Z,16.24
2019-01-23T00:25:52.326Z,16.24
2019-01-23T00:26:55.896Z,16.23
2019-01-23T00:27:59.705Z,16.24
2019-01-23T00:29:03.534Z,16.23
2019-01-23T00:30:10.104Z,16.22
2019-01-23T00:31:13.670Z,16.21
2019-01-23T00:32:17.372Z,16.21
2019-01-23T00:33:20.960Z,16.18
2019-01-23T00:34:24.608Z,16.18
2019-01-23T00:35:28.174Z,16.16
2019-01-23T00:36:31.795Z,16.17
2019-01-23T00:37:35.601Z,16.17
2019-01-23T00:38:39.152Z,16.17
2019-01-23T00:39:42.779Z,16.16
2019-01-23T00:40:46.324Z,16.16
2019-01-23T00:41:49.940Z,16.14
2019-01-23T00:42:53.483Z,16.14
2019-01-23T00:43:57.089Z,16.14
2019-01-23T00:45:00.728Z,16.14
2019-01-23T00:46:04.414Z,16.13
2019-01-23T00:47:08.119Z,16.12
2019-01-23T00:48:11.836Z,16.10
2019-01-23T00:49:15.448Z,16.10
2019-01-23T00:50:19.103Z,16.09
2019-01-23T00:51:22.787Z,16.08
2019-01-23T00:52:26.416Z,16.08
2019-01-23T00:53:29.967Z,16.06
2019-01-23T00:54:33.760Z,16.06
2019-01-23T00:55:37.325Z,16.06
2019-01-23T00:56:40.848Z,16.05
2019-01-23T00:57:44.446Z,16.05
2019-01-23T00:58:49.239Z,16.05
2019-01-23T00:59:53.094Z,16.05
2019-01-23T01:00:56.760Z,16.05
2019-01-23T01:02:00.356Z,16.04
2019-01-23T01:03:04.238Z,16.04
2019-01-23T01:04:07.942Z,16.04
2019-01-23T01:05:11.945Z,16.04
2019-01-23T01:06:15.770Z,16.03
2019-01-23T01:07:19.451Z,16.02
2019-01-23T01:08:23.076Z,16.00
2019-01-23T01:09:26.628Z,16.00
2019-01-23T01:10:30.285Z,15.98
2019-01-23T01:11:34.003Z,15.96
2019-01-23T01:12:37.728Z,15.96
2019-01-23T01:13:41.411Z,15.96
2019-01-23T01:14:45.309Z,15.94
2019-01-23T01:15:48.953Z,15.92
2019-01-23T01:16:52.665Z,15.92
2019-01-23T01:17:57.063Z,15.91
2019-01-23T01:19:00.634Z,15.90
2019-01-23T01:20:07.638Z,15.89
2019-01-23T01:21:11.412Z,15.87
2019-01-23T01:22:15.298Z,15.88
2019-01-23T01:23:18.981Z,15.86
2019-01-23T01:24:22.523Z,15.86
2019-01-23T01:25:26.132Z,15.86
2019-01-23T01:26:29.999Z,15.84
2019-01-23T01:27:33.954Z,15.84
2019-01-23T01:28:37.615Z,15.82
2019-01-23T01:29:41.466Z,15.82
2019-01-23T01:30:45.124Z,15.81
2019-01-23T01:31:48.817Z,15.79
2019-01-23T01:32:52.609Z,15.79
2019-01-23T01:33:56.151Z,15.79
2019-01-23T01:34:59.977Z,15.78
2019-01-23T01:36:04.200Z,15.78
2019-01-23T01:37:07.940Z,15.77
2019-01-23T01:38:11.745Z,15.78
2019-01-23T01:39:15.441Z,15.77
2019-01-23T01:40:20.021Z,15.76
2019-01-23T01:41:23.553Z,15.76
2019-01-23T01:42:27.208Z,15.75
2019-01-23T01:43:30.753Z,15.74
2019-01-23T01:44:34.410Z,15.72
2019-01-23T01:45:38.023Z,15.72
2019-01-23T01:46:41.591Z,15.72
2019-01-23T01:47:45.449Z,15.71
2019-01-23T01:48:49.003Z,15.70
2019-01-23T01:49:52.537Z,15.71
2019-01-23T01:50:56.074Z,15.70
2019-01-23T01:51:59.611Z,15.70
2019-01-23T01:53:03.346Z,15.69
2019-01-23T01:54:06.885Z,15.70
2019-01-23T01:55:11.103Z,15.70
2019-01-23T01:56:14.842Z,15.68
2019-01-23T01:57:18.788Z,15.70
2019-01-23T01:58:22.381Z,15.69
2019-01-23T01:59:25.932Z,15.69
2019-01-23T02:00:29.669Z,15.70
2019-01-23T02:01:33.230Z,15.69
2019-01-23T02:02:36.940Z,15.69
2019-01-23T02:03:40.515Z,15.67
2019-01-23T02:04:44.066Z,15.67
2019-01-23T02:05:47.770Z,15.67
2019-01-23T02:06:51.319Z,15.68
2019-01-23T02:07:55.037Z,15.66
2019-01-23T02:08:58.634Z,15.66
2019-01-23T02:10:02.327Z,15.65
2019-01-23T02:11:05.986Z,15.62
2019-01-23T02:12:09.815Z,15.63
2019-01-23T02:13:13.521Z,15.63
2019-01-23T02:14:17.396Z,15.63
2019-01-23T02:15:21.642Z,15.62
2019-01-23T02:16:25.398Z,15.60
2019-01-23T02:17:29.225Z,15.61
2019-01-23T02:18:32.760Z,15.60
2019-01-23T02:19:36.336Z,15.59
2019-01-23T02:20:40.040Z,15.60
2019-01-23T02:21:43.596Z,15.58
2019-01-23T02:22:47.332Z,15.58
2019-01-23T02:23:50.954Z,15.55
2019-01-23T02:24:54.647Z,15.55
2019-01-23T02:25:58.202Z,15.51
2019-01-23T02:27:01.766Z,15.54
2019-01-23T02:28:05.624Z,15.53
2019-01-23T02:29:09.795Z,15.52
2019-01-23T02:30:18.666Z,15.51
2019-01-23T02:31:22.212Z,15.50
2019-01-23T02:32:25.919Z,15.48
2019-01-23T02:33:29.481Z,15.49
2019-01-23T02:34:33.033Z,15.48
2019-01-23T02:35:36.744Z,15.48
2019-01-23T02:36:40.446Z,15.47
2019-01-23T02:37:44.056Z,15.47
2019-01-23T02:38:47.728Z,15.44
2019-01-23T02:39:51.335Z,15.45
2019-01-23T02:40:54.981Z,15.44
2019-01-23T02:41:58.658Z,15.43
2019-01-23T02:43:02.341Z,15.43
2019-01-23T02:44:06.026Z,15.42
2019-01-23T02:45:09.741Z,15.42
2019-01-23T02:46:13.342Z,15.42
2019-01-23T02:47:17.027Z,15.42
2019-01-23T02:48:20.658Z,15.41
2019-01-23T02:49:24.189Z,15.41
2019-01-23T02:50:28.004Z,15.40
2019-01-23T02:51:31.674Z,15.40
2019-01-23T02:52:35.309Z,15.39
2019-01-23T02:53:38.908Z,15.39
2019-01-23T02:54:42.521Z,15.38
2019-01-23T02:55:46.266Z,15.37
2019-01-23T02:56:49.864Z,15.36
2019-01-23T02:57:53.410Z,15.38
2019-01-23T02:58:57.040Z,15.37
2019-01-23T03:00:00.628Z,15.37
2019-01-23T03:01:04.301Z,15.36
2019-01-23T03:02:08.029Z,15.36
2019-01-23T03:03:11.753Z,15.36
2019-01-23T03:04:15.435Z,15.34
2019-01-23T03:05:19.824Z,15.35
2019-01-23T03:06:23.532Z,15.35
2019-01-23T03:07:27.210Z,15.34
2019-01-23T03:08:30.907Z,15.35
2019-01-23T03:09:34.545Z,15.35
2019-01-23T03:10:38.190Z,15.34
2019-01-23T03:11:41.903Z,15.34
2019-01-23T03:12:45.971Z,15.34
2019-01-23T03:13:49.784Z,15.33
2019-01-23T03:14:53.322Z,15.33
2019-01-23T03:15:56.973Z,15.32
2019-01-23T03:17:00.654Z,15.31
2019-01-23T03:18:04.374Z,15.31
2019-01-23T03:19:08.262Z,15.29
2019-01-23T03:20:15.472Z,15.28
2019-01-23T03:21:19.130Z,15.28
2019-01-23T03:22:22.931Z,15.27
2019-01-23T03:23:26.813Z,15.26
2019-01-23T03:24:30.517Z,15.26
2019-01-23T03:25:34.763Z,15.24
2019-01-23T03:26:38.395Z,15.24
2019-01-23T03:27:42.108Z,15.23
2019-01-23T03:28:48.425Z,15.21
2019-01-23T03:29:52.069Z,15.22
2019-01-23T03:30:55.891Z,15.21
2019-01-23T03:32:00.431Z,15.21
2019-01-23T03:33:04.179Z,15.19
2019-01-23T03:34:07.789Z,15.18
2019-01-23T03:35:11.557Z,15.18
2019-01-23T03:36:15.244Z,15.20
2019-01-23T03:37:18.857Z,15.20
2019-01-23T03:38:22.632Z,15.21
2019-01-23T03:39:26.226Z,15.23
2019-01-23T03:40:29.824Z,15.25
2019-01-23T03:41:33.611Z,15.27
2019-01-23T03:42:37.236Z,15.30
2019-01-23T03:43:40.787Z,15.31
2019-01-23T03:44:44.561Z,15.34
2019-01-23T03:45:48.086Z,15.36
2019-01-23T03:46:51.950Z,15.38
2019-01-23T03:47:55.569Z,15.39
2019-01-23T03:48:59.398Z,15.47
2019-01-23T03:50:03.072Z,15.51
2019-01-23T03:51:06.812Z,15.56
2019-01-23T03:52:10.883Z,15.63
2019-01-23T03:53:14.669Z,15.76
2019-01-23T03:54:18.409Z,15.86
2019-01-23T03:55:23.021Z,15.94
2019-01-23T03:56:26.782Z,16.05
2019-01-23T03:57:30.746Z,16.18
2019-01-23T03:58:34.813Z,16.32
2019-01-23T03:59:38.569Z,16.46
2019-01-23T04:00:42.332Z,16.57
2019-01-23T04:01:46.218Z,16.65
2019-01-23T04:02:51.789Z,16.73
2019-01-23T04:03:56.619Z,16.83
2019-01-23T04:05:00.645Z,16.90
2019-01-23T04:06:04.635Z,16.97
2019-01-23T04:07:08.610Z,17.08
2019-01-23T04:08:13.072Z,17.12
2019-01-23T04:09:17.531Z,17.21
2019-01-23T04:10:22.960Z,17.31
2019-01-23T04:11:26.562Z,17.36
2019-01-23T04:12:30.271Z,17.48
2019-01-23T04:13:34.069Z,17.54
2019-01-23T04:14:37.731Z,17.58
2019-01-23T04:15:41.365Z,17.60
2019-01-23T04:16:45.094Z,17.68
2019-01-23T04:17:48.914Z,17.73
2019-01-23T04:18:52.376Z,17.80
2019-01-23T04:19:56.312Z,17.81
2019-01-23T04:21:00.155Z,17.92
2019-01-23T04:22:03.919Z,17.92
2019-01-23T04:23:07.674Z,17.95
2019-01-23T04:24:11.267Z,18.02
2019-01-23T04:25:15.155Z,18.09
2019-01-23T04:26:18.833Z,18.09
2019-01-23T04:27:22.325Z,18.16
2019-01-23T04:28:26.134Z,18.13
2019-01-23T04:29:29.826Z,18.20
2019-01-23T04:30:33.450Z,18.23
2019-01-23T04:31:37.179Z,18.25
2019-01-23T04:32:40.704Z,18.28
2019-01-23T04:33:44.434Z,18.35
2019-01-23T04:34:48.053Z,18.38
2019-01-23T04:35:51.627Z,18.39
2019-01-23T04:36:55.128Z,18.46
2019-01-23T04:37:58.668Z,18.51
2019-01-23T04:39:02.157Z,18.55
2019-01-23T04:40:11.170Z,18.55
2019-01-23T04:41:15.292Z,18.58
2019-01-23T04:42:19.025Z,18.52
2019-01-23T04:43:22.542Z,18.55
2019-01-23T04:44:26.040Z,18.55
2019-01-23T04:45:29.623Z,18.57
2019-01-23T04:46:33.150Z,18.55
2019-01-23T04:47:36.834Z,18.52
2019-01-23T04:48:40.392Z,18.57
2019-01-23T04:49:44.104Z,18.56
2019-01-23T04:50:51.795Z,18.59
2019-01-23T04:51:56.901Z,18.60
2019-01-23T04:53:07.736Z,18.63
2019-01-23T04:54:12.051Z,18.64
2019-01-23T04:55:15.620Z,18.63
2019-01-23T04:56:19.234Z,18.67
2019-01-23T04:57:22.767Z,18.66
2019-01-23T04:58:26.349Z,18.68
2019-01-23T04:59:29.865Z,18.67
2019-01-23T05:00:33.508Z,18.67
2019-01-23T05:01:37.027Z,18.63
2019-01-23T05:02:40.622Z,18.63
2019-01-23T05:03:44.233Z,18.65
2019-01-23T05:04:47.804Z,18.67
2019-01-23T05:05:51.366Z,18.66
2019-01-23T05:06:54.939Z,18.69
2019-01-23T05:07:58.423Z,18.69
2019-01-23T05:09:02.031Z,18.71
2019-01-23T05:10:06.760Z,18.69
2019-01-23T05:11:10.334Z,18.68
2019-01-23T05:12:13.822Z,18.64
2019-01-23T05:13:17.319Z,18.62
2019-01-23T05:14:20.925Z,18.60
2019-01-23T05:15:24.493Z,18.54
2019-01-23T05:16:27.975Z,18.50
2019-01-23T05:17:31.552Z,18.49
2019-01-23T05:18:35.067Z,18.43
2019-01-23T05:19:38.701Z,18.42
2019-01-23T05:20:42.183Z,18.38
2019-01-23T05:21:45.683Z,18.38
2019-01-23T05:22:49.309Z,18.36
2019-01-23T05:23:52.871Z,18.38
2019-01-23T05:24:56.377Z,18.39
2019-01-23T05:25:59.913Z,18.42
2019-01-23T05:27:03.559Z,18.54
2019-01-23T05:28:07.290Z,18.61
2019-01-23T05:29:10.761Z,18.60
2019-01-23T05:30:19.759Z,18.63
2019-01-23T05:31:23.321Z,18.75
2019-01-23T05:32:26.815Z,18.85
2019-01-23T05:33:30.336Z,18.86
2019-01-23T05:34:33.833Z,18.88
2019-01-23T05:35:37.665Z,18.86
2019-01-23T05:36:41.361Z,18.86
2019-01-23T05:37:44.875Z,18.84
2019-01-23T05:38:48.454Z,18.88
2019-01-23T05:39:51.935Z,18.88
2019-01-23T05:40:55.508Z,18.94
2019-01-23T05:41:59.039Z,18.98
2019-01-23T05:43:02.600Z,18.98
2019-01-23T05:44:06.132Z,18.99
2019-01-23T05:45:12.407Z,19.00
2019-01-23T05:46:16.093Z,18.94
2019-01-23T05:47:19.572Z,18.88
2019-01-23T05:48:23.065Z,18.85
2019-01-23T05:49:26.707Z,18.84
2019-01-23T05:50:30.237Z,18.80
2019-01-23T05:51:33.995Z,18.77
2019-01-23T05:52:37.652Z,18.75
2019-01-23T05:53:41.361Z,18.78
2019-01-23T05:54:44.895Z,18.74
2019-01-23T05:55:48.523Z,18.70
2019-01-23T05:56:52.083Z,18.64
2019-01-23T05:57:55.594Z,18.62
2019-01-23T05:58:59.084Z,18.55
2019-01-23T06:00:02.968Z,18.45
2019-01-23T06:01:06.653Z,18.40
2019-01-23T06:02:10.170Z,18.27
2019-01-23T06:03:13.656Z,18.16
2019-01-23T06:04:17.217Z,18.06
2019-01-23T06:05:20.983Z,17.90
2019-01-23T06:06:24.528Z,17.81
2019-01-23T06:07:28.029Z,17.77
2019-01-23T06:08:31.524Z,17.75
2019-01-23T06:09:35.104Z,17.75
2019-01-23T06:10:38.609Z,17.74
2019-01-23T06:11:42.205Z,17.76
2019-01-23T06:12:45.807Z,17.77
2019-01-23T06:13:49.315Z,17.79
2019-01-23T06:14:52.813Z,17.79
2019-01-23T06:15:56.455Z,17.76
2019-01-23T06:17:00.045Z,17.71
2019-01-23T06:18:04.032Z,17.69
2019-01-23T06:19:07.695Z,17.70
2019-01-23T06:20:19.444Z,17.64
2019-01-23T06:21:23.034Z,17.63
2019-01-23T06:22:26.599Z,17.61
2019-01-23T06:23:30.197Z,17.58
2019-01-23T06:24:33.868Z,17.57
2019-01-23T06:25:37.392Z,17.56
2019-01-23T06:26:40.944Z,17.67
2019-01-23T06:27:44.551Z,17.67
2019-01-23T06:28:48.111Z,17.74
2019-01-23T06:29:51.617Z,17.87
2019-01-23T06:30:55.148Z,18.04
2019-01-23T06:31:58.615Z,18.16
2019-01-23T06:33:02.142Z,18.24
2019-01-23T06:34:05.702Z,18.34
2019-01-23T06:35:09.431Z,18.43
2019-01-23T06:36:13.003Z,18.52
2019-01-23T06:37:16.662Z,18.68
2019-01-23T06:38:20.156Z,18.68
2019-01-23T06:39:23.736Z,18.73
2019-01-23T06:40:27.306Z,18.78
2019-01-23T06:41:30.780Z,18.80
2019-01-23T06:42:34.307Z,18.89
2019-01-23T06:43:37.882Z,18.91
2019-01-23T06:44:41.367Z,18.92
2019-01-23T06:45:44.889Z,18.90
2019-01-23T06:46:48.379Z,18.93
2019-01-23T06:47:52.003Z,19.01
2019-01-23T06:48:55.677Z,18.97
2019-01-23T06:49:59.184Z,18.91
2019-01-23T06:51:02.670Z,18.87
2019-01-23T06:52:06.318Z,18.85
2019-01-23T06:53:13.941Z,18.84
2019-01-23T06:54:15.056Z,18.77
2019-01-23T06:55:18.805Z,18.71
2019-01-23T06:56:22.293Z,18.72
2019-01-23T06:57:25.898Z,18.67
2019-01-23T06:58:29.441Z,18.63
2019-01-23T06:59:33.068Z,18.65
2019-01-23T07:00:36.646Z,18.65
2019-01-23T07:01:40.171Z,18.67
2019-01-23T07:02:43.782Z,18.72
2019-01-23T07:03:47.275Z,18.73
2019-01-23T07:04:50.871Z,18.79
2019-01-23T07:05:54.418Z,18.79
2019-01-23T07:06:58.062Z,18.81
2019-01-23T07:08:01.605Z,18.82
2019-01-23T07:09:07.381Z,18.82
2019-01-23T07:10:14.246Z,18.81
2019-01-23T07:11:17.801Z,18.75
2019-01-23T07:12:21.294Z,18.71
2019-01-23T07:13:24.859Z,18.67
2019-01-23T07:14:28.343Z,18.66
2019-01-23T07:15:31.874Z,18.63
2019-01-23T07:16:35.452Z,18.58
2019-01-23T07:17:38.991Z,18.56
2019-01-23T07:18:42.517Z,18.53
2019-01-23T07:19:46.011Z,18.47
2019-01-23T07:20:49.578Z,18.44
2019-01-23T07:21:53.082Z,18.41
2019-01-23T07:22:56.661Z,18.42
2019-01-23T07:24:00.180Z,18.43
2019-01-23T07:25:04.803Z,18.47
2019-01-23T07:26:08.388Z,18.50
2019-01-23T07:27:11.918Z,18.47
2019-01-23T07:28:15.408Z,18.55
2019-01-23T07:29:18.876Z,18.55
2019-01-23T07:30:27.647Z,18.56
2019-01-23T07:31:31.146Z,18.57
2019-01-23T07:32:34.651Z,18.57
2019-01-23T07:33:38.242Z,18.55
2019-01-23T07:34:44.669Z,18.53
2019-01-23T07:35:48.181Z,18.49
2019-01-23T07:36:51.802Z,18.48
2019-01-23T07:37:55.419Z,18.44
2019-01-23T07:38:58.950Z,18.39
2019-01-23T07:40:02.577Z,18.33
2019-01-23T07:41:06.246Z,18.32
2019-01-23T07:42:09.784Z,18.30
2019-01-23T07:43:13.321Z,18.28
2019-01-23T07:44:16.955Z,18.29
2019-01-23T07:45:23.013Z,18.29
2019-01-23T07:46:26.577Z,18.29
2019-01-23T07:47:30.146Z,18.28
2019-01-23T07:48:33.688Z,18.29
2019-01-23T07:49:37.189Z,18.34
2019-01-23T07:50:40.795Z,18.40
2019-01-23T07:51:44.330Z,18.40
2019-01-23T07:52:47.919Z,18.44
2019-01-23T07:53:51.400Z,18.46
2019-01-23T07:54:54.887Z,18.43
2019-01-23T07:55:58.419Z,18.42
2019-01-23T07:57:01.958Z,18.42
2019-01-23T07:58:05.657Z,18.42
2019-01-23T07:59:09.988Z,18.39
2019-01-23T08:00:18.215Z,18.35
2019-01-23T08:01:21.716Z,18.33
2019-01-23T08:02:25.350Z,18.30
2019-01-23T08:03:28.924Z,18.28
2019-01-23T08:04:32.415Z,18.25
2019-01-23T08:05:35.980Z,18.21
2019-01-23T08:06:39.697Z,18.21
2019-01-23T08:07:43.274Z,18.17
2019-01-23T08:08:46.842Z,18.20
2019-01-23T08:09:50.375Z,18.20
2019-01-23T08:10:53.891Z,18.24
2019-01-23T08:11:57.594Z,18.28
2019-01-23T08:13:01.208Z,18.35
2019-01-23T08:14:05.521Z,18.38
2019-01-23T08:15:20.626Z,18.38
2019-01-23T08:16:24.148Z,18.41
2019-01-23T08:17:32.693Z,18.41
2019-01-23T08:18:32.970Z,18.41
2019-01-23T08:19:36.506Z,18.42
2019-01-23T08:20:40.072Z,18.41
2019-01-23T08:21:43.652Z,18.38
2019-01-23T08:22:47.278Z,18.36
2019-01-23T08:23:50.798Z,18.35
2019-01-23T08:24:54.283Z,18.34
2019-01-23T08:25:57.763Z,18.31
2019-01-23T08:27:07.028Z,18.26
2019-01-23T08:28:06.614Z,18.23
2019-01-23T08:29:12.519Z,18.20
2019-01-23T08:30:21.379Z,18.19
2019-01-23T08:31:24.995Z,18.17
2019-01-23T08:32:28.551Z,18.20
2019-01-23T08:33:32.129Z,18.21
2019-01-23T08:34:35.802Z,18.25
2019-01-23T08:35:39.262Z,18.26
2019-01-23T08:36:42.746Z,18.28
2019-01-23T08:37:46.611Z,18.29
2019-01-23T08:38:50.230Z,18.31
2019-01-23T08:39:53.803Z,18.33
2019-01-23T08:40:57.878Z,18.32
2019-01-23T08:42:01.429Z,18.31
2019-01-23T08:43:05.869Z,18.29
2019-01-23T08:44:09.439Z,18.24
2019-01-23T08:45:14.536Z,18.24
2019-01-23T08:46:18.141Z,18.21
2019-01-23T08:47:21.647Z,18.20
2019-01-23T08:48:25.211Z,18.16
2019-01-23T08:49:28.871Z,18.15
2019-01-23T08:50:38.110Z,18.10
2019-01-23T08:51:41.666Z,18.15
2019-01-23T08:52:45.179Z,18.15
2019-01-23T08:53:48.639Z,18.15
2019-01-23T08:54:52.258Z,18.17
2019-01-23T08:55:55.835Z,18.17
2019-01-23T08:56:59.360Z,18.21
2019-01-23T08:58:03.008Z,18.23
2019-01-23T08:59:06.624Z,18.29
2019-01-23T09:00:13.406Z,18.30
2019-01-23T09:01:16.909Z,18.29
2019-01-23T09:02:20.559Z,18.28
2019-01-23T09:03:24.192Z,18.26
2019-01-23T09:04:27.757Z,18.24
2019-01-23T09:05:31.266Z,18.24
2019-01-23T09:06:34.768Z,18.24
2019-01-23T09:07:38.400Z,18.21
2019-01-23T09:08:41.963Z,18.19
2019-01-23T09:09:45.531Z,18.15
2019-01-23T09:10:49.186Z,18.14
2019-01-23T09:11:52.817Z,18.12
2019-01-23T09:12:56.305Z,18.11
2019-01-23T09:13:59.929Z,18.14
2019-01-23T09:15:04.039Z,18.13
2019-01-23T09:16:07.628Z,18.13
2019-01-23T09:17:11.293Z,18.13
2019-01-23T09:18:14.879Z,18.18
2019-01-23T09:19:18.500Z,18.15
2019-01-23T09:20:23.024Z,18.21
2019-01-23T09:21:26.630Z,18.22
2019-01-23T09:22:30.212Z,18.26
2019-01-23T09:23:33.916Z,18.22
2019-01-23T09:24:37.418Z,18.21
2019-01-23T09:25:41.040Z,18.18
2019-01-23T09:26:44.560Z,18.17
2019-01-23T09:27:48.040Z,18.17
2019-01-23T09:28:51.595Z,18.13
2019-01-23T09:29:55.088Z,18.09
2019-01-23T09:31:01.611Z,18.10
2019-01-23T09:32:35.337Z,18.11
2019-01-23T09:33:56.978Z,18.09
2019-01-23T09:35:03.509Z,18.11
2019-01-23T09:36:33.948Z,18.11
2019-01-23T09:37:58.384Z,18.13
2019-01-23T09:39:30.210Z,18.16
2019-01-23T09:40:36.786Z,18.19
2019-01-23T09:41:48.541Z,18.19
2019-01-23T09:43:06.369Z,18.19
2019-01-23T09:44:28.003Z,18.19
2019-01-23T09:45:37.328Z,18.19
2019-01-23T09:46:52.649Z,18.19
2019-01-23T09:48:07.821Z,18.18
2019-01-23T09:49:16.938Z,18.16
2019-01-23T09:50:23.475Z,18.12
2019-01-23T09:51:46.119Z,18.07
2019-01-23T09:52:52.733Z,18.06
2019-01-23T09:54:02.165Z,18.05
2019-01-23T09:55:09.036Z,18.02
2019-01-23T09:56:13.311Z,18.01
2019-01-23T09:57:16.895Z,18.01
2019-01-23T09:58:20.419Z,18.05
2019-01-23T09:59:23.932Z,18.08
2019-01-23T10:00:31.807Z,18.08
2019-01-23T10:01:34.422Z,18.06
2019-01-23T10:02:37.913Z,18.06
2019-01-23T10:03:41.487Z,18.04
2019-01-23T10:04:45.036Z,18.07
2019-01-23T10:05:48.596Z,18.00
2019-01-23T10:06:52.215Z,18.03
2019-01-23T10:07:55.744Z,18.03
2019-01-23T10:08:59.344Z,18.01
2019-01-23T10:10:02.928Z,17.99
2019-01-23T10:11:06.583Z,17.96
2019-01-23T10:12:10.063Z,17.96
2019-01-23T10:13:13.641Z,17.95
2019-01-23T10:14:17.211Z,17.92
2019-01-23T10:15:24.060Z,17.93
2019-01-23T10:16:27.568Z,17.93
2019-01-23T10:17:31.272Z,17.94
2019-01-23T10:18:34.908Z,17.96
2019-01-23T10:19:38.438Z,17.97
2019-01-23T10:20:41.981Z,17.98
2019-01-23T10:21:45.696Z,18.01
2019-01-23T10:22:49.338Z,17.99
2019-01-23T10:23:52.872Z,18.00
2019-01-23T10:24:56.410Z,18.01
2019-01-23T10:26:00.018Z,18.01
2019-01-23T10:27:03.533Z,18.00
2019-01-23T10:28:07.197Z,17.99
2019-01-23T10:29:10.668Z,17.93
2019-01-23T10:30:15.669Z,17.94
2019-01-23T10:31:19.137Z,17.92
2019-01-23T10:32:22.687Z,17.90
2019-01-23T10:33:26.207Z,17.91
2019-01-23T10:34:29.755Z,17.93
2019-01-23T10:35:33.300Z,17.92
2019-01-23T10:36:36.883Z,17.93
2019-01-23T10:37:40.507Z,17.94
2019-01-23T10:38:44.083Z,17.93
2019-01-23T10:39:47.641Z,17.95
2019-01-23T10:40:52.423Z,17.95
2019-01-23T10:41:56.056Z,17.96
2019-01-23T10:42:59.665Z,17.99
2019-01-23T10:44:03.254Z,18.00
2019-01-23T10:45:09.125Z,18.01
2019-01-23T10:46:12.714Z,18.00
2019-01-23T10:47:16.257Z,18.00
2019-01-23T10:48:19.946Z,18.02
2019-01-23T10:49:23.525Z,17.99
2019-01-23T10:50:27.086Z,18.00
2019-01-23T10:51:30.592Z,17.97
2019-01-23T10:52:34.159Z,17.96
2019-01-23T10:53:37.628Z,17.94
2019-01-23T10:54:41.272Z,17.93
2019-01-23T10:55:44.900Z,17.93
2019-01-23T10:56:48.543Z,17.96
2019-01-23T10:57:52.188Z,17.97
2019-01-23T10:58:55.729Z,17.99
2019-01-23T10:59:59.328Z,17.99
2019-01-23T11:01:02.865Z,17.99
2019-01-23T11:02:06.507Z,18.00
2019-01-23T11:03:10.763Z,18.00
2019-01-23T11:04:14.435Z,18.00
2019-01-23T11:05:20.606Z,18.01
2019-01-23T11:06:24.201Z,17.99
2019-01-23T11:07:27.673Z,17.98
2019-01-23T11:08:31.187Z,17.97
2019-01-23T11:09:34.823Z,17.95
2019-01-23T11:10:38.381Z,17.93
2019-01-23T11:11:42.036Z,17.89
2019-01-23T11:12:45.580Z,17.85
2019-01-23T11:13:49.101Z,17.84
2019-01-23T11:14:52.684Z,17.82
2019-01-23T11:15:57.604Z,17.79
2019-01-23T11:17:01.403Z,17.77
2019-01-23T11:18:06.108Z,17.73
2019-01-23T11:19:09.737Z,17.73
2019-01-23T11:20:15.989Z,17.66
2019-01-23T11:21:19.635Z,17.65
2019-01-23T11:22:26.799Z,17.62
2019-01-23T11:23:30.773Z,17.59
2019-01-23T11:24:34.323Z,17.58
2019-01-23T11:25:37.893Z,17.59
2019-01-23T11:26:41.454Z,17.58
2019-01-23T11:27:45.671Z,17.59
2019-01-23T11:28:49.182Z,17.64
2019-01-23T11:29:52.721Z,17.67
2019-01-23T11:30:56.237Z,17.69
2019-01-23T11:31:59.946Z,17.76
2019-01-23T11:33:03.510Z,17.83
2019-01-23T11:34:07.107Z,17.84
2019-01-23T11:35:11.038Z,17.84
2019-01-23T11:36:14.585Z,17.90
2019-01-23T11:37:18.165Z,17.90
2019-01-23T11:38:21.714Z,17.90
2019-01-23T11:39:25.408Z,17.91
2019-01-23T11:40:31.046Z,17.90
2019-01-23T11:41:34.661Z,17.91
2019-01-23T11:42:38.340Z,17.92
2019-01-23T11:43:41.956Z,17.88
2019-01-23T11:44:45.513Z,17.84
2019-01-23T11:45:49.678Z,17.84
2019-01-23T11:46:53.217Z,17.82
2019-01-23T11:47:56.950Z,17.84
2019-01-23T11:49:00.516Z,17.82
2019-01-23T11:50:05.865Z,17.79
2019-01-23T11:51:09.425Z,17.82
2019-01-23T11:52:12.982Z,17.90
2019-01-23T11:53:16.564Z,17.86
2019-01-23T11:54:20.060Z,17.90
2019-01-23T11:55:23.649Z,17.90
2019-01-23T11:56:27.288Z,17.87
2019-01-23T11:57:30.762Z,17.88
2019-01-23T11:58:34.418Z,17.88
2019-01-23T11:59:37.981Z,17.88
2019-01-23T12:00:41.701Z,17.87
2019-01-23T12:01:45.398Z,17.85
2019-01-23T12:02:49.034Z,17.84
2019-01-23T12:03:52.599Z,17.82
2019-01-23T12:04:56.180Z,17.78
2019-01-23T12:05:59.856Z,17.77
2019-01-23T12:07:03.416Z,17.73
2019-01-23T12:08:07.070Z,17.73
2019-01-23T12:09:10.922Z,17.71
2019-01-23T12:10:17.335Z,17.74
2019-01-23T12:11:20.939Z,17.75
2019-01-23T12:12:24.427Z,17.75
2019-01-23T12:13:28.118Z,17.78
2019-01-23T12:14:31.624Z,17.77
2019-01-23T12:15:40.766Z,17.77
2019-01-23T12:16:40.519Z,17.77
2019-01-23T12:17:44.164Z,17.75
2019-01-23T12:18:47.843Z,17.74
2019-01-23T12:19:51.367Z,17.70
2019-01-23T12:20:55.135Z,17.69
2019-01-23T12:22:00.275Z,17.70
2019-01-23T12:23:04.115Z,17.66
2019-01-23T12:24:07.843Z,17.64
2019-01-23T12:25:12.582Z,17.62
2019-01-23T12:26:16.434Z,17.61
2019-01-23T12:27:20.179Z,17.59
2019-01-23T12:28:23.779Z,17.62
2019-01-23T12:29:27.446Z,17.59
2019-01-23T12:30:33.591Z,17.62
2019-01-23T12:31:37.256Z,17.59
2019-01-23T12:32:40.925Z,17.64
2019-01-23T12:33:44.558Z,17.66
2019-01-23T12:34:48.141Z,17.69
2019-01-23T12:35:51.719Z,17.70
2019-01-23T12:36:56.114Z,17.69
2019-01-23T12:37:59.716Z,17.70
2019-01-23T12:39:05.253Z,17.68
2019-01-23T12:40:12.780Z,17.68
2019-01-23T12:41:16.381Z,17.67
2019-01-23T12:42:19.878Z,17.64
2019-01-23T12:43:23.500Z,17.63
2019-01-23T12:44:27.198Z,17.63
2019-01-23T12:45:30.848Z,17.61
2019-01-23T12:46:34.527Z,17.60
2019-01-23T12:47:38.100Z,17.59
2019-01-23T12:48:41.580Z,17.56
2019-01-23T12:49:45.529Z,17.59
2019-01-23T12:50:49.200Z,17.59
2019-01-23T12:51:52.798Z,17.64
2019-01-23T12:52:56.393Z,17.66
2019-01-23T12:54:01.052Z,17.67
2019-01-23T12:55:05.828Z,17.73
2019-01-23T12:56:09.470Z,17.75
2019-01-23T12:57:13.064Z,17.75
2019-01-23T12:58:16.707Z,17.81
2019-01-23T12:59:20.252Z,17.84
2019-01-23T13:00:26.210Z,17.88
2019-01-23T13:01:29.919Z,17.92
2019-01-23T13:02:33.583Z,17.93
2019-01-23T13:03:37.211Z,17.95
2019-01-23T13:04:40.846Z,17.95
2019-01-23T13:05:44.535Z,17.93
2019-01-23T13:06:48.181Z,17.95
2019-01-23T13:07:52.135Z,17.94
2019-01-23T13:08:55.816Z,17.92
2019-01-23T13:09:59.538Z,17.95
2019-01-23T13:11:03.273Z,18.00
2019-01-23T13:12:07.009Z,18.00
2019-01-23T13:13:10.716Z,18.04
2019-01-23T13:14:14.320Z,18.07
2019-01-23T13:15:22.576Z,18.10
2019-01-23T13:16:26.261Z,18.15
2019-01-23T13:17:29.834Z,18.16
2019-01-23T13:18:33.404Z,18.21
2019-01-23T13:19:37.064Z,18.22
2019-01-23T13:20:40.611Z,18.23
2019-01-23T13:21:44.422Z,18.23
2019-01-23T13:22:48.193Z,18.22
2019-01-23T13:23:53.187Z,18.17
2019-01-23T13:24:56.793Z,18.18
2019-01-23T13:26:00.477Z,18.18
2019-01-23T13:27:04.446Z,18.18
2019-01-23T13:28:08.002Z,18.20
2019-01-23T13:29:11.575Z,18.19
2019-01-23T13:30:20.107Z,18.20
2019-01-23T13:31:23.595Z,18.20
2019-01-23T13:32:27.225Z,18.16
2019-01-23T13:33:30.991Z,18.18
2019-01-23T13:34:34.676Z,18.22
2019-01-23T13:35:38.924Z,18.24
2019-01-23T13:36:42.649Z,18.23
2019-01-23T13:37:46.271Z,18.28
2019-01-23T13:38:49.830Z,18.31
2019-01-23T13:39:53.319Z,18.28
2019-01-23T13:40:56.823Z,18.28
2019-01-23T13:42:00.573Z,18.28
2019-01-23T13:43:05.196Z,18.28
2019-01-23T13:44:08.771Z,18.27
2019-01-23T13:45:13.183Z,18.28
2019-01-23T13:46:18.263Z,18.25